Impacts METAR Board
IDs:

KCLT - Charlotte/Douglas In, NC, US

Updated at: 1600 UTC 03 Dec 2021
Potential Impact None Slight Moderate High
Time 03/04Z 03/05Z 03/06Z 03/07Z 03/08Z 03/09Z 03/10Z 03/11Z 03/12Z 03/13Z 03/14Z 03/15Z 03/16Z
Temp58 56 54 51 52 47 45 46 48 49 55 64 70
Dewpt45 44 44 44 43 43 41 41 41 41 44 42 41
Altim29.97 29.97 29.98 29.99 30.00 30.01 30.01 30.01 30.04 30.06 30.07 30.09 30.09
VIS10 10 10 10 10 10 10 10 10 10 10 10 10
CIG-- -- -- -- -- -- -- -- -- -- -- -- --
CoverFEWFEWCLRCLRCLRFEWFEWFEWFEWFEWFEWFEWFEW
FltCatVFRVFRVFRVFRVFRVFRVFRVFRVFRVFRVFRVFRVFR
WX--------------------------
WDir260250250220240320000000220
WSpd5 4 3 3 4 3 0 0 0 0 0 0 3
WGst-- -- -- -- -- -- -- -- -- -- -- -- --
Raw hourly METARs
KCLT 030352Z 26005KT 10SM FEW250 14/07 A2997 RMK AO2 SLP145 T01440072
KCLT 030452Z 25004KT 10SM FEW250 13/07 A2997 RMK AO2 SLP145 T01330067 402280056
KCLT 030552Z 25003KT 10SM CLR 12/07 A2998 RMK AO2 SLP148 T01220067 10167 20117 51007
KCLT 030652Z 22003KT 10SM CLR 11/07 A2999 RMK AO2 SLP150 T01060067
KCLT 030752Z 24004KT 10SM CLR 11/06 A3000 RMK AO2 SLP154 T01110061
KCLT 030852Z 32003KT 10SM FEW250 08/06 A3001 RMK AO2 SLP157 T00830061 51008
KCLT 030952Z 00000KT 10SM FEW250 07/05 A3001 RMK AO2 SLP160 T00720050
KCLT 031052Z 00000KT 10SM FEW250 08/05 A3001 RMK AO2 SLP161 T00780050
KCLT 031152Z 00000KT 10SM FEW250 09/05 A3004 RMK AO2 SLP169 T00890050 10122 20056 53011
KCLT 031252Z 00000KT 10SM FEW250 09/05 A3006 RMK AO2 SLP176 T00940050
KCLT 031352Z 00000KT 10SM FEW250 13/07 A3007 RMK AO2 SLP179 T01280067
KCLT 031452Z 00000KT 10SM FEW250 18/06 A3009 RMK AO2 SLP184 T01780056 51016
KCLT 031552Z 22003KT 10SM FEW250 21/05 A3009 RMK AO2 SLP183 T02110050



Page loaded:  16:49 UTC  |   08:49 AM Pacific  |   09:49 AM Mountain  |   10:49 AM Central  |   11:49 AM Eastern

 

ADVISORIES

FORECASTS

FORECASTS

OBSERVATIONS

USER TOOLS

ABOUT US